createdAt,value
2023-04-30T00:02:23.603Z,11.44
2023-04-30T00:04:51.988Z,11.47
2023-04-30T00:07:20.313Z,11.51
2023-04-30T00:09:49.513Z,11.55
2023-04-30T00:12:17.997Z,11.51
2023-04-30T00:14:46.347Z,11.46
2023-04-30T00:17:16.220Z,11.46
2023-04-30T00:19:44.898Z,11.34
2023-04-30T00:22:15.785Z,11.58
2023-04-30T00:24:44.329Z,11.29
2023-04-30T00:27:12.629Z,11.34
2023-04-30T00:29:41.563Z,11.28
2023-04-30T00:32:10.213Z,11.25
2023-04-30T00:34:40.100Z,11.30
2023-04-30T00:37:08.512Z,11.33
2023-04-30T00:39:36.924Z,11.45
2023-04-30T00:42:05.368Z,11.46
2023-04-30T00:44:33.708Z,11.48
2023-04-30T00:47:02.010Z,11.38
2023-04-30T00:49:30.276Z,11.34
2023-04-30T00:51:59.998Z,11.32
2023-04-30T00:54:28.518Z,11.27
2023-04-30T00:56:59.731Z,11.26
2023-04-30T00:59:30.077Z,11.32
2023-04-30T01:01:58.478Z,11.30
2023-04-30T01:04:27.203Z,11.26
2023-04-30T01:06:56.663Z,11.32
2023-04-30T01:09:26.506Z,11.35
2023-04-30T01:12:06.279Z,11.26
2023-04-30T01:14:42.609Z,11.28
2023-04-30T01:17:18.742Z,11.21
2023-04-30T01:19:47.444Z,11.36
2023-04-30T01:22:32.897Z,11.27
2023-04-30T01:25:24.373Z,11.17
2023-04-30T01:28:07.193Z,11.25
2023-04-30T01:30:37.243Z,11.25
2023-04-30T01:33:05.589Z,11.25
2023-04-30T01:35:50.529Z,11.07
2023-04-30T01:38:27.068Z,10.98
2023-04-30T01:41:02.475Z,10.93
2023-04-30T01:43:40.604Z,10.92
2023-04-30T01:46:15.334Z,11.05
2023-04-30T01:48:52.173Z,10.96
2023-04-30T01:51:26.078Z,10.99
2023-04-30T01:53:58.431Z,10.93
2023-04-30T01:56:32.388Z,10.86
2023-04-30T01:59:03.683Z,10.88
2023-04-30T02:01:33.947Z,10.88
2023-04-30T02:04:03.739Z,10.86
2023-04-30T02:06:41.328Z,10.89
2023-04-30T02:09:10.648Z,10.90
2023-04-30T02:11:38.892Z,10.86
2023-04-30T02:14:08.863Z,10.96
2023-04-30T02:16:37.256Z,10.91
2023-04-30T02:19:05.997Z,10.91
2023-04-30T02:21:34.385Z,10.84
2023-04-30T02:24:02.760Z,10.85
2023-04-30T02:26:31.033Z,10.84
2023-04-30T02:28:59.383Z,10.82
2023-04-30T02:31:29.079Z,10.81
2023-04-30T02:33:57.478Z,10.82
2023-04-30T02:36:26.205Z,10.77
2023-04-30T02:38:54.596Z,10.80
2023-04-30T02:41:23.075Z,10.78
2023-04-30T02:43:51.572Z,10.78
2023-04-30T02:46:20.098Z,10.83
2023-04-30T02:48:49.809Z,10.87
2023-04-30T02:51:18.213Z,10.87
2023-04-30T02:53:46.565Z,10.80
2023-04-30T02:56:16.940Z,10.84
2023-04-30T02:58:45.695Z,10.83
2023-04-30T03:01:14.893Z,10.80
2023-04-30T03:03:43.352Z,10.85
2023-04-30T03:06:13.166Z,10.74
2023-04-30T03:08:41.605Z,10.73
2023-04-30T03:11:10.016Z,10.65
2023-04-30T03:13:38.400Z,10.75
2023-04-30T03:16:06.955Z,10.71
2023-04-30T03:18:37.793Z,10.65
2023-04-30T03:21:06.299Z,10.69
2023-04-30T03:23:36.061Z,10.70
2023-04-30T03:26:04.410Z,10.62
2023-04-30T03:28:32.863Z,10.61
2023-04-30T03:31:05.036Z,10.61
2023-04-30T03:33:34.239Z,10.63
2023-04-30T03:36:02.611Z,10.67
2023-04-30T03:38:31.013Z,10.64
2023-04-30T03:41:00.675Z,10.60
2023-04-30T03:43:28.948Z,10.61
2023-04-30T03:45:57.267Z,10.61
2023-04-30T03:48:27.213Z,10.66
2023-04-30T03:50:55.730Z,10.66
2023-04-30T03:53:25.768Z,10.62
2023-04-30T03:55:55.391Z,10.58
2023-04-30T03:58:25.180Z,10.56
2023-04-30T04:00:53.788Z,10.62
2023-04-30T04:03:22.285Z,10.61
2023-04-30T04:05:51.322Z,10.58
2023-04-30T04:08:19.881Z,10.58
2023-04-30T04:10:48.426Z,10.59
2023-04-30T04:13:16.784Z,10.62
2023-04-30T04:15:46.722Z,10.63
2023-04-30T04:18:15.197Z,10.48
2023-04-30T04:20:43.691Z,10.57
2023-04-30T04:23:12.201Z,10.60
2023-04-30T04:25:41.658Z,10.53
2023-04-30T04:28:10.595Z,10.52
2023-04-30T04:30:40.026Z,10.60
2023-04-30T04:33:10.518Z,10.63
2023-04-30T04:35:38.884Z,10.72
2023-04-30T04:38:07.389Z,10.72
2023-04-30T04:40:37.230Z,10.76
2023-04-30T04:43:05.569Z,10.58
2023-04-30T04:45:36.772Z,10.80
2023-04-30T04:48:05.126Z,10.94
2023-04-30T04:50:37.341Z,10.98
2023-04-30T04:53:05.903Z,10.82
2023-04-30T04:55:34.456Z,10.77
2023-04-30T04:58:02.721Z,10.74
2023-04-30T05:00:31.074Z,10.71
2023-04-30T05:02:59.824Z,10.80
2023-04-30T05:05:31.084Z,10.86
2023-04-30T05:08:00.720Z,10.81
2023-04-30T05:10:29.054Z,10.84
2023-04-30T05:12:58.898Z,10.90
2023-04-30T05:15:27.248Z,11.03
2023-04-30T05:17:55.627Z,10.92
2023-04-30T05:20:24.156Z,11.02
2023-04-30T05:22:52.414Z,11.17
2023-04-30T05:25:22.130Z,11.21
2023-04-30T05:27:50.566Z,11.09
2023-04-30T05:30:19.040Z,11.28
2023-04-30T05:32:50.871Z,11.17
2023-04-30T05:35:21.591Z,11.35
2023-04-30T05:37:50.257Z,11.19
2023-04-30T05:40:18.708Z,11.18
2023-04-30T05:42:48.313Z,11.28
2023-04-30T05:45:17.404Z,11.22
2023-04-30T05:47:46.024Z,11.46
2023-04-30T05:50:14.459Z,11.07
2023-04-30T05:52:44.766Z,11.18
2023-04-30T05:55:13.776Z,11.62
2023-04-30T05:57:42.144Z,11.63
2023-04-30T06:00:14.154Z,11.67
2023-04-30T06:02:42.460Z,11.83
2023-04-30T06:05:12.889Z,12.39
2023-04-30T06:07:43.033Z,12.10
2023-04-30T06:10:12.759Z,12.49
2023-04-30T06:12:41.242Z,13.18
2023-04-30T06:15:09.962Z,12.64
2023-04-30T06:17:39.681Z,12.36
2023-04-30T06:20:09.555Z,12.20
2023-04-30T06:22:37.850Z,12.32
2023-04-30T06:25:07.283Z,12.66
2023-04-30T06:27:35.580Z,12.78
2023-04-30T06:30:03.964Z,12.38
2023-04-30T06:32:32.259Z,12.81
2023-04-30T06:35:01.943Z,12.74
2023-04-30T06:37:31.457Z,12.73
2023-04-30T06:40:01.407Z,13.05
2023-04-30T06:42:34.315Z,13.20
2023-04-30T06:45:02.700Z,12.52
2023-04-30T06:47:34.520Z,12.79
2023-04-30T06:50:05.401Z,12.81
2023-04-30T06:52:36.255Z,12.94
2023-04-30T06:55:04.868Z,12.78
2023-04-30T06:57:33.182Z,13.88
2023-04-30T07:00:02.279Z,13.65
2023-04-30T07:02:32.925Z,13.92
2023-04-30T07:05:11.436Z,13.31
2023-04-30T07:07:39.771Z,13.48
2023-04-30T07:10:08.846Z,14.42
2023-04-30T07:12:37.539Z,14.06
2023-04-30T07:15:06.490Z,14.14
2023-04-30T07:17:35.249Z,14.43
2023-04-30T07:20:04.436Z,14.23
2023-04-30T07:22:34.056Z,14.34
2023-04-30T07:25:02.471Z,13.72
2023-04-30T07:27:30.748Z,14.36
2023-04-30T07:30:01.137Z,14.74
2023-04-30T07:32:29.474Z,14.13
2023-04-30T07:34:59.924Z,14.10
2023-04-30T07:37:28.243Z,14.42
2023-04-30T07:39:58.000Z,14.42
2023-04-30T07:42:26.327Z,14.39
2023-04-30T07:44:57.474Z,15.21
2023-04-30T07:47:27.013Z,14.86
2023-04-30T07:49:55.703Z,14.60
2023-04-30T07:52:26.857Z,15.01
2023-04-30T07:54:55.323Z,15.08
2023-04-30T07:57:26.636Z,14.43
2023-04-30T07:59:55.233Z,14.75
2023-04-30T08:02:23.927Z,14.33
2023-04-30T08:04:52.496Z,15.16
2023-04-30T08:07:21.092Z,15.23
2023-04-30T08:09:49.440Z,14.79
2023-04-30T08:12:18.427Z,14.71
2023-04-30T08:14:48.069Z,15.46
2023-04-30T08:17:16.443Z,15.65
2023-04-30T08:19:47.426Z,15.94
2023-04-30T08:22:17.825Z,15.60
2023-04-30T08:24:46.098Z,15.51
2023-04-30T08:27:14.436Z,15.41
2023-04-30T08:29:42.816Z,15.53
2023-04-30T08:32:12.665Z,15.91
2023-04-30T08:34:41.687Z,15.04
2023-04-30T08:37:10.453Z,14.90
2023-04-30T08:39:38.895Z,15.23
2023-04-30T08:42:15.681Z,14.99
2023-04-30T08:44:46.495Z,15.58
2023-04-30T08:47:18.939Z,15.94
2023-04-30T08:49:48.560Z,15.34
2023-04-30T08:52:17.298Z,15.30
2023-04-30T08:54:45.929Z,15.83
2023-04-30T08:57:16.684Z,15.34
2023-04-30T08:59:46.266Z,15.93
2023-04-30T09:02:14.704Z,16.20
2023-04-30T09:04:44.691Z,15.96
2023-04-30T09:07:14.488Z,17.02
2023-04-30T09:09:42.803Z,16.45
2023-04-30T09:12:19.337Z,16.50
2023-04-30T09:15:01.603Z,16.12
2023-04-30T09:17:30.354Z,15.49
2023-04-30T09:20:09.830Z,15.79
2023-04-30T09:22:42.011Z,15.37
2023-04-30T09:25:12.659Z,15.44
2023-04-30T09:27:41.398Z,15.72
2023-04-30T09:30:31.362Z,15.31
2023-04-30T09:32:59.739Z,15.27
2023-04-30T09:35:33.559Z,15.54
2023-04-30T09:38:04.754Z,15.74
2023-04-30T09:40:37.454Z,15.83
2023-04-30T09:43:06.088Z,16.04
2023-04-30T09:45:41.565Z,15.92
2023-04-30T09:48:17.285Z,15.89
2023-04-30T09:50:47.597Z,15.94
2023-04-30T09:53:17.797Z,16.28
2023-04-30T09:55:47.596Z,15.59
2023-04-30T09:58:17.177Z,15.69
2023-04-30T10:00:48.318Z,15.87
2023-04-30T10:03:17.082Z,16.00
2023-04-30T10:05:48.403Z,15.97
2023-04-30T10:08:25.948Z,15.88
2023-04-30T10:10:59.590Z,15.55
2023-04-30T10:13:32.044Z,15.84
2023-04-30T10:16:03.172Z,15.82
2023-04-30T10:18:35.838Z,16.03
2023-04-30T10:21:12.083Z,15.87
2023-04-30T10:23:42.051Z,16.35
2023-04-30T10:26:12.221Z,16.18
2023-04-30T10:28:40.890Z,16.24
2023-04-30T10:31:11.613Z,16.50
2023-04-30T10:33:49.690Z,16.42
2023-04-30T10:36:27.759Z,16.44
2023-04-30T10:38:56.648Z,16.27
2023-04-30T10:41:27.710Z,17.05
2023-04-30T10:44:01.849Z,16.30
2023-04-30T10:46:30.596Z,16.37
2023-04-30T10:49:00.149Z,17.15
2023-04-30T10:54:28.029Z,16.55
2023-04-30T10:57:11.459Z,16.65
2023-04-30T10:59:43.617Z,17.59
2023-04-30T11:02:12.727Z,17.12
2023-04-30T11:05:15.093Z,16.65
2023-04-30T11:07:50.319Z,16.75
2023-04-30T11:10:22.863Z,16.83
2023-04-30T11:12:53.339Z,17.02
2023-04-30T11:15:25.523Z,16.80
2023-04-30T11:17:58.752Z,17.10
2023-04-30T11:20:27.733Z,17.06
2023-04-30T11:23:12.869Z,17.37
2023-04-30T11:25:44.322Z,17.85
2023-04-30T11:28:16.427Z,17.41
2023-04-30T11:30:54.346Z,17.37
2023-04-30T11:33:27.099Z,16.62
2023-04-30T11:35:57.068Z,16.90
2023-04-30T11:38:28.621Z,17.27
2023-04-30T11:41:00.397Z,17.17
2023-04-30T11:43:30.971Z,16.98
2023-04-30T11:46:04.304Z,17.10
2023-04-30T11:48:33.776Z,17.43
2023-04-30T11:51:05.012Z,17.61
2023-04-30T11:53:33.467Z,17.27
2023-04-30T11:56:07.268Z,17.22
2023-04-30T11:58:37.906Z,16.92
2023-04-30T12:01:09.697Z,16.98
2023-04-30T12:03:43.043Z,17.86
2023-04-30T12:06:13.037Z,17.39
2023-04-30T12:08:42.938Z,17.17
2023-04-30T12:11:25.965Z,17.97
2023-04-30T12:13:55.960Z,17.16
2023-04-30T12:16:25.940Z,17.48
2023-04-30T12:18:56.577Z,17.03
2023-04-30T12:21:25.031Z,16.85
2023-04-30T12:23:53.763Z,16.51
2023-04-30T12:26:22.289Z,16.58
2023-04-30T12:28:53.322Z,16.88
2023-04-30T12:31:21.644Z,17.04
2023-04-30T12:33:56.926Z,16.83
2023-04-30T12:36:32.652Z,17.00
2023-04-30T12:39:08.162Z,17.30
2023-04-30T12:41:42.388Z,17.55
2023-04-30T12:44:19.613Z,17.12
2023-04-30T12:46:48.883Z,17.55
2023-04-30T12:49:25.671Z,17.66
2023-04-30T12:51:59.527Z,17.49
2023-04-30T12:54:29.787Z,17.25
2023-04-30T12:57:03.319Z,16.70
2023-04-30T12:59:34.720Z,17.09
2023-04-30T13:02:14.751Z,16.82
2023-04-30T13:04:45.815Z,17.26
2023-04-30T13:07:14.163Z,17.25
2023-04-30T13:09:42.494Z,16.97
2023-04-30T13:12:10.823Z,16.97
2023-04-30T13:14:42.731Z,17.38
2023-04-30T13:17:13.776Z,17.33
2023-04-30T13:19:42.571Z,17.50
2023-04-30T13:22:10.954Z,17.94
2023-04-30T13:24:39.285Z,17.87
2023-04-30T13:27:07.594Z,17.30
2023-04-30T13:29:35.972Z,17.36
2023-04-30T13:32:05.935Z,18.09
2023-04-30T13:34:34.318Z,17.22
2023-04-30T13:37:02.712Z,18.14
2023-04-30T13:39:30.981Z,17.06
2023-04-30T13:42:01.360Z,17.56
2023-04-30T13:44:32.664Z,17.88
2023-04-30T13:47:01.227Z,17.45
2023-04-30T13:49:31.117Z,17.44
2023-04-30T13:51:59.396Z,17.35
2023-04-30T13:54:28.201Z,18.06
2023-04-30T13:56:57.022Z,18.57
2023-04-30T13:59:25.483Z,17.97
2023-04-30T14:01:56.411Z,18.58
2023-04-30T14:04:24.736Z,18.25
2023-04-30T14:06:56.599Z,17.89
2023-04-30T14:09:25.262Z,18.37
2023-04-30T14:11:58.998Z,18.51
2023-04-30T14:14:27.566Z,17.77
2023-04-30T14:16:56.372Z,18.23
2023-04-30T14:19:27.443Z,17.50
2023-04-30T14:21:57.353Z,17.48
2023-04-30T14:24:26.034Z,17.52
2023-04-30T14:26:54.420Z,18.09
2023-04-30T14:29:22.777Z,18.11
2023-04-30T14:31:51.068Z,18.34
2023-04-30T14:34:19.667Z,18.42
2023-04-30T14:36:48.088Z,18.36
2023-04-30T14:39:17.683Z,18.28
2023-04-30T14:41:45.986Z,17.81
2023-04-30T14:44:14.285Z,17.44
2023-04-30T14:46:42.629Z,17.25
2023-04-30T14:49:11.280Z,17.89
2023-04-30T14:51:42.379Z,18.23
2023-04-30T14:54:10.837Z,18.17
2023-04-30T14:56:41.038Z,18.24
2023-04-30T14:59:09.557Z,17.96
2023-04-30T15:01:40.405Z,17.80
2023-04-30T15:04:09.526Z,18.08
2023-04-30T15:06:38.074Z,18.36
2023-04-30T15:09:08.597Z,19.16
2023-04-30T15:11:36.849Z,18.41
2023-04-30T15:14:06.739Z,18.28
2023-04-30T15:16:35.145Z,19.00
2023-04-30T15:19:03.717Z,18.25
2023-04-30T15:21:34.241Z,17.79
2023-04-30T15:24:02.548Z,18.31
2023-04-30T15:26:31.210Z,18.11
2023-04-30T15:28:59.667Z,17.86
2023-04-30T15:31:30.452Z,17.83
2023-04-30T15:33:58.785Z,18.18
2023-04-30T15:36:27.179Z,18.15
2023-04-30T15:38:57.526Z,18.27
2023-04-30T15:41:26.099Z,18.10
2023-04-30T15:43:54.408Z,18.58
2023-04-30T15:46:25.584Z,18.26
2023-04-30T15:48:55.337Z,17.93
2023-04-30T15:51:23.803Z,18.69
2023-04-30T15:53:52.176Z,18.19
2023-04-30T15:56:25.480Z,18.14
2023-04-30T15:58:54.468Z,18.12
2023-04-30T16:01:23.631Z,18.03
2023-04-30T16:03:52.206Z,18.17
2023-04-30T16:06:24.906Z,17.90
2023-04-30T16:08:54.057Z,18.06
2023-04-30T16:11:23.832Z,18.01
2023-04-30T16:13:52.913Z,18.29
2023-04-30T16:16:21.308Z,18.05
2023-04-30T16:18:50.853Z,18.20
2023-04-30T16:21:21.919Z,17.89
2023-04-30T16:23:52.612Z,17.90
2023-04-30T16:26:20.961Z,17.79
2023-04-30T16:28:49.306Z,17.93
2023-04-30T16:31:21.370Z,17.74
2023-04-30T16:33:49.870Z,17.51
2023-04-30T16:36:18.185Z,17.58
2023-04-30T16:38:46.677Z,17.61
2023-04-30T16:41:17.879Z,17.63
2023-04-30T16:43:46.121Z,17.51
2023-04-30T16:46:16.498Z,17.68
2023-04-30T16:48:44.952Z,17.42
2023-04-30T16:51:13.739Z,17.25
2023-04-30T16:53:42.065Z,17.43
2023-04-30T16:56:10.350Z,17.76
2023-04-30T16:58:39.998Z,17.29
2023-04-30T17:01:08.345Z,17.30
2023-04-30T17:03:36.960Z,17.41
2023-04-30T17:06:07.230Z,17.59
2023-04-30T17:08:40.347Z,17.61
2023-04-30T17:11:08.947Z,17.33
2023-04-30T17:13:37.598Z,17.50
2023-04-30T17:16:07.617Z,17.20
2023-04-30T17:18:36.029Z,17.19
2023-04-30T17:21:04.963Z,17.22
2023-04-30T17:23:33.273Z,16.64
2023-04-30T17:26:01.936Z,16.74
2023-04-30T17:28:30.225Z,17.06
2023-04-30T17:30:58.739Z,16.99
2023-04-30T17:33:29.178Z,16.93
2023-04-30T17:35:58.518Z,16.78
2023-04-30T17:38:26.956Z,16.65
2023-04-30T17:40:56.618Z,16.56
2023-04-30T17:43:27.920Z,16.61
2023-04-30T17:45:57.230Z,16.60
2023-04-30T17:48:25.596Z,16.45
2023-04-30T17:50:55.707Z,16.47
2023-04-30T17:53:26.130Z,16.37
2023-04-30T17:55:54.463Z,16.30
2023-04-30T17:58:22.913Z,16.31
2023-04-30T18:00:51.526Z,16.12
2023-04-30T18:03:20.135Z,15.97
2023-04-30T18:05:48.685Z,15.96
2023-04-30T18:08:18.568Z,15.82
2023-04-30T18:10:49.660Z,15.80
2023-04-30T18:13:18.320Z,15.73
2023-04-30T18:15:47.044Z,15.58
2023-04-30T18:18:16.157Z,15.57
2023-04-30T18:20:44.572Z,15.61
2023-04-30T18:23:13.942Z,15.50
2023-04-30T18:25:43.640Z,15.40
2023-04-30T18:28:12.417Z,15.37
2023-04-30T18:30:40.692Z,15.39
2023-04-30T18:33:09.224Z,15.32
2023-04-30T18:35:38.075Z,15.27
2023-04-30T18:38:08.069Z,15.18
2023-04-30T18:40:36.473Z,15.10
2023-04-30T18:43:06.134Z,14.96
2023-04-30T18:45:34.424Z,14.94
2023-04-30T18:48:02.869Z,14.77
2023-04-30T18:50:31.217Z,14.69
2023-04-30T18:52:59.542Z,14.61
2023-04-30T18:55:27.881Z,14.62
2023-04-30T18:57:56.528Z,14.60
2023-04-30T19:00:26.631Z,14.60
2023-04-30T19:02:55.709Z,14.47
2023-04-30T19:05:24.163Z,14.54
2023-04-30T19:07:52.580Z,14.47
2023-04-30T19:10:20.914Z,14.42
2023-04-30T19:12:51.287Z,14.44
2023-04-30T19:15:19.816Z,14.47
2023-04-30T19:17:49.465Z,14.23
2023-04-30T19:20:17.879Z,14.11
2023-04-30T19:22:46.552Z,13.83
2023-04-30T19:25:15.793Z,14.05
2023-04-30T19:27:44.962Z,14.25
2023-04-30T19:30:14.704Z,14.24
2023-04-30T19:32:43.180Z,14.06
2023-04-30T19:35:13.407Z,14.25
2023-04-30T19:37:41.799Z,13.64
2023-04-30T19:40:14.134Z,13.59
2023-04-30T19:42:44.634Z,13.58
2023-04-30T19:45:12.927Z,13.49
2023-04-30T19:47:41.317Z,13.41
2023-04-30T19:50:10.398Z,13.38
2023-04-30T19:52:50.604Z,13.32
2023-04-30T19:55:24.631Z,13.21
2023-04-30T19:57:52.931Z,13.22
2023-04-30T20:00:21.502Z,12.99
2023-04-30T20:02:50.257Z,13.21
2023-04-30T20:05:18.755Z,13.21
2023-04-30T20:07:48.472Z,12.89
2023-04-30T20:10:19.728Z,13.06
2023-04-30T20:12:48.036Z,13.13
2023-04-30T20:15:16.573Z,13.09
2023-04-30T20:17:46.030Z,12.72
2023-04-30T20:20:17.157Z,12.63
2023-04-30T20:22:45.472Z,12.64
2023-04-30T20:25:16.450Z,12.59
2023-04-30T20:27:44.778Z,12.61
2023-04-30T20:30:13.732Z,12.28
2023-04-30T20:32:44.877Z,12.28
2023-04-30T20:35:13.442Z,12.16
2023-04-30T20:37:42.131Z,12.07
2023-04-30T20:40:11.326Z,12.01
2023-04-30T20:42:40.966Z,11.89
2023-04-30T20:45:11.246Z,11.89
2023-04-30T20:47:40.400Z,12.03
2023-04-30T20:50:09.774Z,12.09
2023-04-30T20:52:38.115Z,11.77
2023-04-30T20:55:06.998Z,11.95
2023-04-30T20:57:37.962Z,11.79
2023-04-30T21:00:11.886Z,11.91
2023-04-30T21:02:40.350Z,11.60
2023-04-30T21:05:10.096Z,11.63
2023-04-30T21:07:38.456Z,11.61
2023-04-30T21:10:08.248Z,11.50
2023-04-30T21:12:36.892Z,11.47
2023-04-30T21:15:05.822Z,11.48
2023-04-30T21:17:35.530Z,11.38
2023-04-30T21:20:07.504Z,11.47
2023-04-30T21:22:36.013Z,11.57
2023-04-30T21:25:04.710Z,11.41
2023-04-30T21:27:36.652Z,11.36
2023-04-30T21:30:05.734Z,11.44
2023-04-30T21:32:35.383Z,11.34
2023-04-30T21:35:03.929Z,11.27
2023-04-30T21:37:32.228Z,11.26
2023-04-30T21:40:00.675Z,11.06
2023-04-30T21:42:29.729Z,11.07
2023-04-30T21:44:57.980Z,11.03
2023-04-30T21:47:26.540Z,11.17
2023-04-30T21:49:59.525Z,11.01
2023-04-30T21:52:28.023Z,10.65
2023-04-30T21:54:56.388Z,10.85
2023-04-30T21:57:25.105Z,10.77
2023-04-30T22:02:38.613Z,10.47
2023-04-30T22:05:07.855Z,10.56
2023-04-30T22:07:36.524Z,10.43
2023-04-30T22:10:05.778Z,10.37
2023-04-30T22:12:35.546Z,10.26
2023-04-30T22:15:04.635Z,9.99
2023-04-30T22:17:33.437Z,10.07
2023-04-30T22:20:03.387Z,10.10
2023-04-30T22:22:32.052Z,10.18
2023-04-30T22:25:00.406Z,10.16
2023-04-30T22:27:28.693Z,10.30
2023-04-30T22:29:59.204Z,10.15
2023-04-30T22:32:27.624Z,10.11
2023-04-30T22:34:55.923Z,10.13
2023-04-30T22:37:26.275Z,10.04
2023-04-30T22:39:54.796Z,10.04
2023-04-30T22:42:24.312Z,10.18
2023-04-30T22:44:53.134Z,10.40
2023-04-30T22:47:21.533Z,10.05
2023-04-30T22:49:50.028Z,9.78
2023-04-30T22:52:18.313Z,9.84
2023-04-30T22:54:48.208Z,9.78
2023-04-30T22:57:16.795Z,10.01
2023-04-30T22:59:45.127Z,9.95
2023-04-30T23:02:15.866Z,9.48
2023-04-30T23:04:44.260Z,9.39
2023-04-30T23:07:14.965Z,9.55
2023-04-30T23:09:45.113Z,9.63
2023-04-30T23:12:15.192Z,9.48
2023-04-30T23:14:43.471Z,9.68
2023-04-30T23:17:11.874Z,9.74
2023-04-30T23:19:40.195Z,9.62
2023-04-30T23:22:08.464Z,9.76
2023-04-30T23:24:37.726Z,9.38
2023-04-30T23:27:06.013Z,9.47
2023-04-30T23:29:36.466Z,9.59
2023-04-30T23:32:05.709Z,9.53
2023-04-30T23:34:34.086Z,9.57
2023-04-30T23:37:02.993Z,9.22
2023-04-30T23:39:31.285Z,9.55
2023-04-30T23:41:59.582Z,9.75
2023-04-30T23:44:30.922Z,9.50
2023-04-30T23:47:01.953Z,9.63
2023-04-30T23:49:30.489Z,9.72
2023-04-30T23:51:58.952Z,9.62
2023-04-30T23:54:27.197Z,9.48
2023-04-30T23:56:55.456Z,9.40
2023-04-30T23:59:25.540Z,9.66
